Time;durP1;ratioP1;P1;durP2;ratioP2;P2;SDS_P1;SDS_P2;PMS_P1;PMS_P2;Temp;Humidity;BMP_temperature;BMP_pressure;BME280_temperature;BME280_humidity;BME280_pressure;Samples;Min_cycle;Max_cycle;Signal;HPM_P1;HPM_P2
2021/07/08 00:04:02;;;;;;;;;;;;;;;19.70;67.86;99866.09;532837;1087;103125;-60
2021/07/08 00:14:08;;;;;;;;;;;;;;;19.60;68.21;99868.84;523449;1087;102301;-59
2021/07/08 00:24:14;;;;;;;;;;;;;;;19.48;68.40;99862.05;532280;1087;102139;-60
2021/07/08 00:34:18;;;;;;;;;;;;;;;19.51;69.00;99852.90;532908;1087;103505;-60
2021/07/08 00:44:24;;;;;;;;;;;;;;;19.49;68.74;99863.72;532940;1086;102099;-60
2021/07/08 00:54:29;;;;;;;;;;;;;;;19.42;69.20;99858.16;532307;1087;152271;-61
2021/07/08 01:04:33;;;;;;;;;;;;;;;19.42;69.25;99851.98;532971;1086;101953;-61
2021/07/08 01:14:38;;;;;;;;;;;;;;;19.31;70.07;99864.52;532873;1087;102740;-61
2021/07/08 01:24:43;;;;;;;;;;;;;;;19.09;70.63;99872.89;532247;1087;102176;-61
2021/07/08 01:34:48;;;;;;;;;;;;;;;19.12;70.69;99888.59;532891;1087;102922;-61
2021/07/08 01:44:53;;;;;;;;;;;;;;;19.12;70.88;99891.25;532293;1087;104424;-60
2021/07/08 01:54:57;;;;;;;;;;;;;;;19.03;71.05;99891.13;532939;1084;103430;-61
2021/07/08 02:05:02;;;;;;;;;;;;;;;18.96;71.42;99887.34;532946;1087;101992;-61
2021/07/08 02:15:07;;;;;;;;;;;;;;;18.80;72.41;99898.59;532230;1085;102251;-61
2021/07/08 02:25:13;;;;;;;;;;;;;;;18.67;72.90;99903.38;532898;1087;103310;-60
2021/07/08 02:35:18;;;;;;;;;;;;;;;18.55;73.57;99908.05;532994;1085;102404;-60
2021/07/08 02:45:24;;;;;;;;;;;;;;;18.64;73.96;99915.14;532311;1085;102953;-60
2021/07/08 02:55:29;;;;;;;;;;;;;;;18.66;74.15;99899.91;532903;1088;102932;-60
2021/07/08 03:05:35;;;;;;;;;;;;;;;18.62;74.47;99895.83;532942;1089;102234;-60
2021/07/08 03:15:40;;;;;;;;;;;;;;;18.60;74.65;99889.83;532233;1089;102412;-61
2021/07/08 03:25:45;;;;;;;;;;;;;;;18.53;74.83;99912.67;532889;1087;102025;-61
2021/07/08 03:35:50;;;;;;;;;;;;;;;18.55;75.19;99918.68;532249;1090;102229;-61
2021/07/08 03:45:55;;;;;;;;;;;;;;;18.57;75.44;99919.38;532916;1090;103068;-61
2021/07/08 03:56:00;;;;;;;;;;;;;;;18.74;75.42;99933.76;532859;1088;102912;-61
2021/07/08 04:06:05;;;;;;;;;;;;;;;18.76;75.48;99918.48;532233;1089;102802;-60
2021/07/08 04:16:10;;;;;;;;;;;;;;;18.85;75.59;99949.55;532881;1090;105066;-61
2021/07/08 04:26:15;;;;;;;;;;;;;;;18.86;75.30;99964.53;532899;1087;102432;-61
2021/07/08 04:36:20;;;;;;;;;;;;;;;18.83;75.56;99979.94;532269;1089;102603;-61
2021/07/08 04:46:26;;;;;;;;;;;;;;;18.93;75.58;99991.40;532910;1089;103607;-61
2021/07/08 04:56:32;;;;;;;;;;;;;;;19.14;75.46;99991.23;532937;1088;103622;-61
2021/07/08 05:06:37;;;;;;;;;;;;;;;19.19;75.40;99993.46;532282;1088;103581;-61
2021/07/08 05:16:41;;;;;;;;;;;;;;;19.24;74.97;99977.91;532920;1087;102416;-61
2021/07/08 05:26:46;;;;;;;;;;;;;;;19.37;74.74;99976.74;532337;1088;103280;-60
2021/07/08 05:36:51;;;;;;;;;;;;;;;19.52;74.50;99991.24;531725;1089;102467;-60
2021/07/08 05:46:56;;;;;;;;;;;;;;;19.56;73.90;99999.78;529550;1088;103045;-61
2021/07/08 05:57:01;;;;;;;;;;;;;;;19.56;73.86;100031.74;524964;1088;103361;-61
2021/07/08 06:07:06;;;;;;;;;;;;;;;20.14;73.78;100024.46;514637;1089;103436;-61
2021/07/08 06:17:11;;;;;;;;;;;;;;;20.51;71.78;100030.67;514675;1088;104080;-61
2021/07/08 06:27:16;;;;;;;;;;;;;;;20.36;72.03;100043.69;513994;1089;103682;-61
2021/07/08 06:37:21;;;;;;;;;;;;;;;20.58;71.55;100031.72;514719;1088;102981;-62
2021/07/08 06:47:37;;;;;;;;;;;;;;;21.20;70.84;100019.38;524988;1089;103219;-61
2021/07/08 06:57:50;;;;;;;;;;;;;;;21.19;70.20;100009.69;532283;1089;103032;-64
2021/07/08 07:07:56;;;;;;;;;;;;;;;21.39;69.75;99999.61;532874;1088;102809;-69
2021/07/08 07:18:04;;;;;;;;;;;;;;;21.90;68.95;100007.70;529115;1087;102753;-68
2021/07/08 07:28:10;;;;;;;;;;;;;;;23.07;66.95;100001.44;532520;1088;103107;-64
2021/07/08 07:38:15;;;;;;;;;;;;;;;26.38;63.69;99983.57;532844;1087;102652;-67
2021/07/08 07:48:20;;;;;;;;;;;;;;;31.94;55.42;99954.89;532311;1089;102866;-66
2021/07/08 07:58:27;;;;;;;;;;;;;;;30.97;51.63;99967.33;532875;1089;101975;-67
2021/07/08 08:08:32;;;;;;;;;;;;;;;31.66;48.87;99959.03;522888;1088;101610;-65
2021/07/08 08:18:37;;;;;;;;;;;;;;;30.75;48.53;99973.98;532225;1088;102430;-65
2021/07/08 08:28:51;;;;;;;;;;;;;;;31.68;47.65;99967.77;532860;1089;104386;-67
2021/07/08 08:38:56;;;;;;;;;;;;;;;32.46;45.12;99960.81;531340;1089;102400;-65
2021/07/08 08:49:01;;;;;;;;;;;;;;;31.52;45.14;99971.13;517258;1089;102988;-68
2021/07/08 08:59:05;;;;;;;;;;;;;;;30.97;45.11;99970.03;523746;1089;10001810;-61
2021/07/08 09:09:10;;;;;;;;;;;;;;;29.47;46.56;99965.82;532095;1088;102648;-62
2021/07/08 09:19:17;;;;;;;;;;;;;;;28.34;48.34;99976.53;532751;1088;102379;-60
2021/07/08 09:29:23;;;;;;;;;;;;;;;28.15;49.13;99976.29;532726;1088;102955;-60
2021/07/08 09:39:30;;;;;;;;;;;;;;;28.28;49.25;100005.22;527013;1088;102846;-62
2021/07/08 09:49:42;;;;;;;;;;;;;;;27.02;50.59;100012.50;532887;1089;102550;-63
2021/07/08 09:59:47;;;;;;;;;;;;;;;26.20;52.08;100004.70;532268;1088;102487;-59
2021/07/08 10:09:52;;;;;;;;;;;;;;;25.46;53.88;99970.52;532895;1089;102081;-73
2021/07/08 10:19:57;;;;;;;;;;;;;;;24.88;55.15;99964.95;532837;1087;102504;-60
2021/07/08 10:30:04;;;;;;;;;;;;;;;24.27;56.37;99965.80;516605;1088;102806;-59
2021/07/08 10:40:26;;;;;;;;;;;;;;;23.66;58.14;99967.30;514676;1088;102678;-62
2021/07/08 10:50:41;;;;;;;;;;;;;;;23.18;60.22;99933.30;532841;1088;102424;-63
2021/07/08 11:00:48;;;;;;;;;;;;;;;23.07;61.32;99907.71;529217;1088;102979;-49
2021/07/08 11:10:53;;;;;;;;;;;;;;;23.41;62.20;99921.02;532873;1089;102011;-48
2021/07/08 11:20:59;;;;;;;;;;;;;;;23.97;61.65;99930.76;532247;1088;101971;-46
2021/07/08 11:31:05;;;;;;;;;;;;;;;25.26;60.30;99953.30;519612;1090;103371;-71
2021/07/08 11:41:10;;;;;;;;;;;;;;;26.38;57.97;99964.73;532897;1089;102065;-66
2021/07/08 11:51:16;;;;;;;;;;;;;;;26.68;56.70;99955.65;532294;1089;104482;-67
2021/07/08 12:01:22;;;;;;;;;;;;;;;26.73;56.50;99942.45;532890;1089;102677;-65
2021/07/08 12:11:29;;;;;;;;;;;;;;;26.93;55.53;99942.59;532860;1089;102271;-59
2021/07/08 12:21:35;;;;;;;;;;;;;;;26.79;55.45;99930.87;532131;1088;102604;-59
2021/07/08 12:31:47;;;;;;;;;;;;;;;26.52;56.46;99919.92;519008;1088;102736;-58
2021/07/08 12:41:53;;;;;;;;;;;;;;;26.64;55.97;99952.51;519746;1088;102708;-59
2021/07/08 12:51:58;;;;;;;;;;;;;;;26.37;56.29;99933.45;532876;1088;102408;-59
2021/07/08 13:02:03;;;;;;;;;;;;;;;25.79;57.72;99912.81;532923;1088;103222;-58
2021/07/08 13:12:22;;;;;;;;;;;;;;;25.79;59.63;99928.09;532325;1088;103182;-63
2021/07/08 13:22:27;;;;;;;;;;;;;;;25.51;60.80;99953.88;525172;1089;103069;-62
2021/07/08 13:32:32;;;;;;;;;;;;;;;24.57;61.64;99882.66;525177;1089;102895;-63
2021/07/08 13:42:36;;;;;;;;;;;;;;;23.65;64.23;99861.91;532216;1088;102644;-65
2021/07/08 13:52:41;;;;;;;;;;;;;;;23.24;66.35;99828.13;532915;1089;102741;-65
2021/07/08 14:02:46;;;;;;;;;;;;;;;23.60;66.88;99801.82;532426;1089;102616;-61
2021/07/08 14:12:51;;;;;;;;;;;;;;;25.05;64.92;99788.33;524030;1089;102772;-65
2021/07/08 14:22:57;;;;;;;;;;;;;;;26.01;63.45;99795.27;515143;1088;101761;-63
2021/07/08 14:33:02;;;;;;;;;;;;;;;26.66;63.05;99799.64;525426;1087;103032;-71
2021/07/08 14:43:15;;;;;;;;;;;;;;;27.17;61.14;99765.28;532857;1090;102500;-64
2021/07/08 14:53:20;;;;;;;;;;;;;;;27.04;60.32;99771.45;532862;1089;102023;-62
2021/07/08 15:03:25;;;;;;;;;;;;;;;27.03;59.75;99777.06;532252;1089;102296;-64
2021/07/08 15:13:31;;;;;;;;;;;;;;;26.95;59.40;99776.20;532916;1089;102824;-63
2021/07/08 15:23:37;;;;;;;;;;;;;;;26.78;59.89;99772.98;532921;1090;103011;-63
2021/07/08 15:33:45;;;;;;;;;;;;;;;26.74;60.44;99777.13;532254;1089;103415;-63
2021/07/08 15:43:50;;;;;;;;;;;;;;;26.71;59.80;99775.66;532891;1089;102878;-63
2021/07/08 15:54:13;;;;;;;;;;;;;;;26.79;59.26;99771.14;532027;1089;103450;-62
2021/07/08 16:04:19;;;;;;;;;;;;;;;26.58;59.38;99760.26;532676;1088;102857;-62
2021/07/08 16:14:25;;;;;;;;;;;;;;;26.53;59.37;99765.42;514836;1088;20001730;-61
2021/07/08 16:24:30;;;;;;;;;;;;;;;26.57;59.51;99757.78;532033;1090;103146;-63
2021/07/08 16:34:36;;;;;;;;;;;;;;;26.53;59.44;99768.12;532748;1088;102028;-61
2021/07/08 16:44:41;;;;;;;;;;;;;;;26.34;59.82;99758.06;532669;1090;102292;-62
2021/07/08 16:54:46;;;;;;;;;;;;;;;26.20;60.28;99763.37;532192;1088;102528;-62
2021/07/08 17:04:51;;;;;;;;;;;;;;;26.15;60.06;99757.73;532879;1089;102423;-62
2021/07/08 17:14:56;;;;;;;;;;;;;;;26.14;60.63;99751.50;532331;1087;102293;-61
2021/07/08 17:25:01;;;;;;;;;;;;;;;26.13;60.74;99731.01;523758;1087;10001012;-63
2021/07/08 17:35:07;;;;;;;;;;;;;;;25.86;61.25;99735.38;532649;1088;103797;-61
2021/07/08 17:45:13;;;;;;;;;;;;;;;25.55;61.36;99725.80;532230;1089;102214;-61
2021/07/08 17:55:19;;;;;;;;;;;;;;;25.00;62.84;99724.43;529981;1088;102407;-60
2021/07/08 18:05:24;;;;;;;;;;;;;;;24.72;63.18;99713.55;519587;1090;102589;-60
2021/07/08 18:15:30;;;;;;;;;;;;;;;24.55;64.10;99705.72;532075;1089;102818;-60
2021/07/08 18:25:36;;;;;;;;;;;;;;;24.24;65.14;99706.75;532815;1088;102776;-60
2021/07/08 18:35:41;;;;;;;;;;;;;;;23.95;66.40;99708.36;532705;1088;102284;-61
2021/07/08 18:45:47;;;;;;;;;;;;;;;23.54;66.95;99706.08;532838;1090;102809;-69
2021/07/08 18:56:10;;;;;;;;;;;;;;;23.28;68.23;99713.47;532829;1088;102653;-70
2021/07/08 19:06:16;;;;;;;;;;;;;;;23.17;68.85;99721.89;532086;1090;102892;-68
2021/07/08 19:16:22;;;;;;;;;;;;;;;22.94;69.57;99711.98;532690;1089;103260;-64
2021/07/08 19:26:29;;;;;;;;;;;;;;;22.72;70.16;99727.82;532867;1088;102158;-65
2021/07/08 19:36:34;;;;;;;;;;;;;;;22.55;70.03;99715.54;532161;1088;102529;-62
2021/07/08 19:46:56;;;;;;;;;;;;;;;22.43;70.54;99707.86;532823;1089;102774;-64
2021/07/08 19:57:02;;;;;;;;;;;;;;;22.29;70.56;99690.69;515448;1088;102208;-63
2021/07/08 20:07:06;;;;;;;;;;;;;;;21.97;70.30;99665.71;514341;1090;102363;-63
2021/07/08 20:17:11;;;;;;;;;;;;;;;21.69;70.23;99653.57;519216;1089;103413;-65
2021/07/08 20:27:16;;;;;;;;;;;;;;;21.51;71.24;99631.55;532227;1088;102649;-65
2021/07/08 20:37:20;;;;;;;;;;;;;;;21.41;71.84;99629.03;532878;1088;102651;-66
2021/07/08 20:47:25;;;;;;;;;;;;;;;21.38;71.65;99632.89;532896;1089;102060;-63
2021/07/08 20:57:35;;;;;;;;;;;;;;;21.34;71.44;99615.52;532279;1087;102654;-63
2021/07/08 21:07:41;;;;;;;;;;;;;;;21.36;71.42;99610.87;532867;1087;103365;-65
2021/07/08 21:17:46;;;;;;;;;;;;;;;21.34;71.79;99591.48;532712;1089;102982;-62
2021/07/08 21:27:57;;;;;;;;;;;;;;;21.35;71.67;99570.97;532581;1088;169363;-62
2021/07/08 21:38:02;;;;;;;;;;;;;;;21.35;72.11;99558.44;532897;1088;102847;-63
2021/07/08 21:48:17;;;;;;;;;;;;;;;21.27;72.38;99521.09;532304;1089;104243;-63
2021/07/08 21:58:22;;;;;;;;;;;;;;;21.32;72.85;99520.58;532900;1089;102954;-64
2021/07/08 22:08:27;;;;;;;;;;;;;;;21.41;72.92;99504.36;532868;1088;103307;-64
2021/07/08 22:18:32;;;;;;;;;;;;;;;21.50;72.80;99515.02;521771;1088;102645;-64
2021/07/08 22:28:43;;;;;;;;;;;;;;;21.63;72.90;99544.70;521815;1089;101909;-65
2021/07/08 22:38:47;;;;;;;;;;;;;;;21.81;72.69;99554.34;530467;1088;102603;-63
2021/07/08 22:48:52;;;;;;;;;;;;;;;21.97;72.50;99566.81;532874;1090;102898;-63
2021/07/08 22:58:58;;;;;;;;;;;;;;;22.13;72.35;99570.44;532873;1089;102270;-64
2021/07/08 23:09:03;;;;;;;;;;;;;;;22.19;71.75;99815.73;532299;1089;103095;-63
2021/07/08 23:19:08;;;;;;;;;;;;;;;22.21;70.12;99811.89;532856;1087;101930;-64
2021/07/08 23:29:13;;;;;;;;;;;;;;;21.96;69.08;99841.32;532878;1089;103070;-64
